Time;durP1;ratioP1;P1;durP2;ratioP2;P2;SDS_P1;SDS_P2;PMS_P1;PMS_P2;Temp;Humidity;BMP_temperature;BMP_pressure;BME280_temperature;BME280_humidity;BME280_pressure;Samples;Min_cycle;Max_cycle;Signal;HPM_P1;HPM_P2
2022/12/05 00:02:37;;;;;;;237.50;116.18;;;;;;;14.50;76.91;99164.16;4967495;28;20710;-61
2022/12/05 00:05:26;;;;;;;240.98;114.45;;;;;;;14.45;76.95;99164.03;4968406;28;20113;-61
2022/12/05 00:08:15;;;;;;;248.43;118.45;;;;;;;14.36;77.27;99178.88;4967478;28;20517;-62
2022/12/05 00:11:13;;;;;;;235.32;112.10;;;;;;;14.22;77.34;99181.75;4968807;28;20162;-61
2022/12/05 00:14:04;;;;;;;225.38;113.18;;;;;;;14.21;77.57;99181.97;4974817;28;20061;-60
2022/12/05 00:16:46;;;;;;;231.57;114.13;;;;;;;14.30;77.59;99180.63;4988156;28;20642;-61
2022/12/05 00:19:35;;;;;;;243.55;113.25;;;;;;;14.27;77.49;99192.69;4983056;28;20141;-61
2022/12/05 00:22:17;;;;;;;235.02;111.25;;;;;;;14.20;76.94;99200.06;4988008;28;20089;-61
2022/12/05 00:25:06;;;;;;;228.32;112.10;;;;;;;13.94;77.58;99200.34;4988418;28;20096;-61
2022/12/05 00:27:48;;;;;;;245.70;113.85;;;;;;;14.04;77.54;99198.78;4981387;28;20065;-61
2022/12/05 00:30:37;;;;;;;252.50;118.85;;;;;;;14.22;77.09;99197.94;4969659;28;20050;-61
2022/12/05 00:33:19;;;;;;;262.25;121.43;;;;;;;14.36;77.40;99212.09;4969578;28;20057;-61
2022/12/05 00:36:10;;;;;;;237.35;113.43;;;;;;;14.27;76.98;99208.91;4984009;28;20144;-63
2022/12/05 00:38:46;;;;;;;244.57;120.78;;;;;;;14.28;77.02;99224.03;4967271;28;20829;-60
2022/12/05 00:41:35;;;;;;;248.07;118.72;;;;;;;14.31;76.98;99225.44;4966878;28;20138;-61
2022/12/05 00:44:24;;;;;;;248.95;122.10;;;;;;;14.30;76.74;99229.22;4971433;28;20049;-61
2022/12/05 00:47:06;;;;;;;254.70;121.78;;;;;;;14.22;77.21;99221.44;4967173;28;20541;-61
2022/12/05 00:49:55;;;;;;;248.75;120.93;;;;;;;14.18;77.16;99239.13;4983358;28;20608;-61
2022/12/05 00:52:38;;;;;;;261.42;124.22;;;;;;;14.29;76.92;99241.91;4986584;28;20070;-62
2022/12/05 00:55:27;;;;;;;265.25;121.15;;;;;;;14.21;77.46;99242.19;4984245;28;20461;-60
2022/12/05 00:58:10;;;;;;;264.42;125.85;;;;;;;14.28;76.84;99242.94;4979051;28;20057;-60
2022/12/05 01:00:59;;;;;;;257.73;121.40;;;;;;;14.26;77.02;99236.94;4970436;28;20441;-61
2022/12/05 01:03:52;;;;;;;240.90;120.75;;;;;;;14.41;77.28;99247.38;4973850;28;20130;-61
2022/12/05 01:06:34;;;;;;;239.80;118.90;;;;;;;14.34;76.78;99251.19;4951474;28;20042;-62
2022/12/05 01:09:31;;;;;;;237.95;117.82;;;;;;;14.37;77.35;99254.28;4962755;28;20157;-61
2022/12/05 01:12:07;;;;;;;241.18;118.65;;;;;;;14.37;76.73;99259.66;4973416;28;20058;-62
2022/12/05 01:15:02;;;;;;;250.80;120.07;;;;;;;14.24;77.04;99265.22;4971676;28;20051;-61
2022/12/05 01:17:38;;;;;;;243.77;118.78;;;;;;;14.36;77.03;99265.28;4973140;28;20070;-61
2022/12/05 01:20:34;;;;;;;259.10;121.38;;;;;;;14.41;76.91;99273.56;4964520;28;20130;-61
2022/12/05 01:23:11;;;;;;;259.52;124.10;;;;;;;14.28;76.78;99279.91;4952376;28;20110;-61
2022/12/05 01:25:59;;;;;;;240.70;117.88;;;;;;;14.20;77.37;99282.91;4967958;28;20436;-61
2022/12/05 01:28:48;;;;;;;239.52;117.70;;;;;;;14.22;77.67;99289.72;4969497;28;20058;-61
2022/12/05 01:31:33;;;;;;;236.10;121.05;;;;;;;14.23;77.29;99293.25;4958832;28;20055;-61
2022/12/05 01:34:23;;;;;;;238.05;118.10;;;;;;;14.30;77.31;99289.44;4967232;28;20054;-61
2022/12/05 01:37:05;;;;;;;235.88;116.95;;;;;;;14.37;76.87;99278.56;4958518;28;20530;-60
2022/12/05 01:39:55;;;;;;;248.40;121.15;;;;;;;14.28;77.17;99288.00;4966959;28;20130;-62
2022/12/05 01:42:51;;;;;;;254.18;120.72;;;;;;;14.28;77.30;99291.53;4965414;28;20054;-61
2022/12/05 01:45:40;;;;;;;240.52;121.03;;;;;;;14.17;77.75;99299.53;4972440;28;20054;-60
2022/12/05 01:48:41;;;;;;;244.10;122.53;;;;;;;14.18;77.28;99301.22;4966376;28;20042;-62
2022/12/05 01:51:17;;;;;;;252.25;123.00;;;;;;;14.30;77.18;99305.63;4952838;28;20057;-61
2022/12/05 01:54:14;;;;;;;256.35;123.20;;;;;;;14.36;76.60;99300.38;4952321;28;20150;-61
2022/12/05 01:56:55;;;;;;;252.88;121.40;;;;;;;14.22;77.41;99300.53;4968548;28;20046;-61
2022/12/05 01:59:49;;;;;;;252.63;121.10;;;;;;;14.23;77.42;99299.47;4967166;28;20064;-61
2022/12/05 02:02:33;;;;;;;252.75;123.50;;;;;;;14.17;77.72;99294.16;4972089;28;20054;-61
2022/12/05 02:05:26;;;;;;;265.02;124.57;;;;;;;14.22;77.35;99305.94;4953167;28;20639;-62
2022/12/05 02:08:16;;;;;;;263.40;124.68;;;;;;;14.16;77.25;99309.53;4965862;28;20051;-61
2022/12/05 02:10:58;;;;;;;273.05;128.07;;;;;;;14.16;78.08;99305.97;4949946;28;20550;-61
2022/12/05 02:14:17;;;;;;;263.33;127.18;;;;;;;14.24;77.88;99314.63;4969706;28;20059;-61
2022/12/05 02:17:05;;;;;;;268.55;123.78;;;;;;;14.22;77.59;99318.59;4966082;28;20053;-61
2022/12/05 02:20:29;;;;;;;257.40;127.85;;;;;;;14.27;78.23;99327.69;4967677;28;20054;-61
2022/12/05 02:24:05;;;;;;;271.38;129.95;;;;;;;14.51;77.43;99327.84;4917697;28;20530;-60
2022/12/05 02:27:05;;;;;;;265.17;127.20;;;;;;;14.45;77.57;99329.56;4968946;28;20057;-62
2022/12/05 02:30:18;;;;;;;274.30;126.30;;;;;;;14.35;77.99;99334.69;4966171;28;20857;-61
2022/12/05 02:33:03;;;;;;;251.48;124.45;;;;;;;14.50;78.11;99337.00;4984240;28;20050;-61
2022/12/05 02:36:01;;;;;;;275.17;129.98;;;;;;;14.53;77.46;99344.66;4965770;28;20213;-60
2022/12/05 02:38:58;;;;;;;274.42;131.50;;;;;;;14.55;77.28;99355.25;4979285;28;20046;-61
2022/12/05 02:41:58;;;;;;;276.40;127.22;;;;;;;14.53;77.32;99352.75;4981232;28;20129;-62
2022/12/05 02:45:11;;;;;;;276.15;127.72;;;;;;;14.59;77.46;99356.47;4972585;28;20042;-63
2022/12/05 02:48:01;;;;;;;289.70;134.70;;;;;;;14.75;76.21;99355.88;4965232;28;20142;-63
2022/12/05 02:50:46;;;;;;;281.25;134.23;;;;;;;14.91;76.21;99349.03;4960030;28;20445;-60
2022/12/05 02:53:36;;;;;;;281.17;132.27;;;;;;;14.99;76.44;99364.13;4982246;28;20810;-61
2022/12/05 02:56:19;;;;;;;273.83;130.63;;;;;;;15.07;76.56;99369.22;4957233;28;20062;-62
2022/12/05 02:59:08;;;;;;;278.73;131.10;;;;;;;14.99;76.10;99367.63;4947025;29;20427;-63
2022/12/05 03:01:51;;;;;;;277.33;132.70;;;;;;;15.23;76.25;99368.59;4949541;28;20055;-61
2022/12/05 03:04:39;;;;;;;273.52;134.95;;;;;;;15.40;76.24;99374.19;4962514;28;20474;-63
2022/12/05 03:07:23;;;;;;;287.67;136.40;;;;;;;15.51;75.55;99386.09;4981013;28;20058;-61
2022/12/05 03:10:14;;;;;;;269.73;132.48;;;;;;;15.58;75.76;99386.00;4970137;28;20081;-63
2022/12/05 03:13:10;;;;;;;280.17;134.88;;;;;;;15.69;75.59;99385.22;4950775;28;20075;-61
2022/12/05 03:16:05;;;;;;;286.98;137.85;;;;;;;15.78;75.18;99401.97;4981013;28;20058;-62
2022/12/05 03:19:00;;;;;;;283.60;137.32;;;;;;;15.88;75.89;99407.69;4989365;28;20062;-60
2022/12/05 03:22:07;;;;;;;291.02;138.60;;;;;;;16.25;73.98;99407.50;4981306;28;20141;-60
2022/12/05 03:24:43;;;;;;;277.55;135.63;;;;;;;16.56;73.89;99419.88;4974200;28;20050;-60
2022/12/05 03:27:59;;;;;;;277.83;134.85;;;;;;;16.73;72.92;99427.28;4976628;28;20053;-60
2022/12/05 03:30:44;;;;;;;290.95;140.65;;;;;;;16.97;71.68;99431.66;4968435;28;20051;-60
2022/12/05 03:33:41;;;;;;;283.90;141.10;;;;;;;17.36;70.93;99436.53;4967956;28;20442;-59
2022/12/05 03:36:33;;;;;;;281.73;140.05;;;;;;;17.75;68.94;99443.00;4977178;28;20052;-62
2022/12/05 03:39:32;;;;;;;274.80;134.52;;;;;;;18.06;69.43;99448.19;4948770;29;20849;-60
2022/12/05 03:42:21;;;;;;;273.63;134.30;;;;;;;18.39;67.92;99453.63;4950021;29;20051;-60
2022/12/05 03:45:20;;;;;;;271.23;136.38;;;;;;;18.57;68.69;99454.44;4949829;29;20047;-59
2022/12/05 03:48:24;;;;;;;266.45;137.43;;;;;;;18.91;66.47;99455.25;4950040;29;20118;-60
2022/12/05 03:51:17;;;;;;;259.13;137.88;;;;;;;19.48;66.12;99461.41;4949906;29;20054;-59
2022/12/05 03:54:24;;;;;;;274.87;139.13;;;;;;;19.43;66.09;99464.91;4951144;28;20109;-61
2022/12/05 03:57:24;;;;;;;269.17;148.57;;;;;;;19.66;65.66;99477.44;4965684;28;20412;-60
2022/12/05 04:00:26;;;;;;;291.02;151.55;;;;;;;19.95;64.03;99472.59;4963423;28;20054;-63
2022/12/05 04:03:38;;;;;;;294.40;152.95;;;;;;;20.15;64.42;99479.31;4986899;28;20081;-63
2022/12/05 04:06:31;;;;;;;325.90;169.90;;;;;;;20.10;64.27;99476.53;4974807;28;20055;-60
2022/12/05 04:09:27;;;;;;;315.90;167.07;;;;;;;20.52;64.12;99484.00;4969443;28;20051;-60
2022/12/05 04:12:26;;;;;;;318.25;173.10;;;;;;;20.76;61.39;99479.03;4976404;28;20050;-60
2022/12/05 04:15:13;;;;;;;318.40;170.63;;;;;;;20.77;60.33;99488.03;4968560;28;20059;-62
2022/12/05 04:18:04;;;;;;;318.60;169.07;;;;;;;20.59;59.70;99487.31;4980555;28;20156;-60
2022/12/05 04:27:23;;;;;;;302.63;164.73;;;;;;;21.37;59.97;99507.78;4948803;29;20086;-61
2022/12/05 04:30:13;;;;;;;304.67;167.68;;;;;;;21.43;60.59;99512.16;4982800;28;20128;-61
2022/12/05 04:33:05;;;;;;;310.50;170.75;;;;;;;21.65;58.74;99515.56;4975344;28;20059;-60
2022/12/05 04:35:58;;;;;;;313.63;172.00;;;;;;;21.68;60.78;99515.03;4969141;28;20683;-60
2022/12/05 04:39:00;;;;;;;313.00;168.10;;;;;;;21.57;58.66;99521.56;4980912;28;20058;-61
2022/12/05 04:42:01;;;;;;;313.98;165.23;;;;;;;21.65;59.99;99517.50;4979601;28;20061;-61
2022/12/05 04:45:01;;;;;;;316.40;166.18;;;;;;;21.59;59.74;99508.47;4984019;28;20054;-61
2022/12/05 04:47:44;;;;;;;300.10;163.95;;;;;;;21.66;59.13;99514.47;4987328;28;20804;-60
2022/12/05 04:50:34;;;;;;;299.17;161.02;;;;;;;21.69;60.35;99513.94;4967381;28;20074;-61
2022/12/05 04:53:25;;;;;;;301.15;163.45;;;;;;;21.64;59.28;99524.84;4969062;28;20787;-62
2022/12/05 04:56:11;;;;;;;296.05;161.48;;;;;;;21.73;58.30;99513.41;4976094;28;20481;-60
2022/12/05 04:59:01;;;;;;;310.80;164.40;;;;;;;21.50;59.66;99520.97;4979741;28;20054;-61
2022/12/05 05:01:54;;;;;;;307.50;164.38;;;;;;;21.72;60.39;99519.97;4976369;28;20051;-61
2022/12/05 05:04:55;;;;;;;288.58;156.52;;;;;;;21.64;61.14;99515.84;4975057;28;20125;-62
2022/12/05 05:07:51;;;;;;;291.55;155.18;;;;;;;21.65;60.04;99512.03;4978270;28;20066;-63
2022/12/05 05:10:54;;;;;;;291.23;154.90;;;;;;;21.70;58.88;99506.56;4974225;28;20130;-62
2022/12/05 05:13:30;;;;;;;281.27;155.70;;;;;;;21.81;60.14;99508.25;4977612;28;20580;-62
2022/12/05 05:16:34;;;;;;;269.48;141.43;;;;;;;21.83;61.21;99513.44;4973005;28;20043;-61
2022/12/05 05:19:24;;;;;;;280.60;152.05;;;;;;;21.82;56.92;99511.78;4982486;28;20070;-63
2022/12/05 05:22:18;;;;;;;292.30;154.25;;;;;;;22.09;57.22;99509.69;4976091;28;20121;-63
2022/12/05 05:24:54;;;;;;;290.95;148.18;;;;;;;22.05;60.24;99507.75;4971806;28;20508;-63
2022/12/05 05:27:42;;;;;;;276.77;153.38;;;;;;;22.20;59.10;99501.50;4956089;28;20065;-62
2022/12/05 05:30:31;;;;;;;290.40;154.40;;;;;;;22.24;59.53;99497.97;4955308;28;20113;-62
2022/12/05 05:33:14;;;;;;;279.05;151.85;;;;;;;22.23;58.52;99498.22;4957226;28;20165;-65
2022/12/05 05:36:02;;;;;;;282.90;152.52;;;;;;;22.21;60.52;99490.28;4985193;28;20058;-65
2022/12/05 05:38:48;;;;;;;242.57;131.93;;;;;;;22.60;57.05;99487.03;4959189;28;20051;-68
2022/12/05 05:41:39;;;;;;;212.68;119.07;;;;;;;22.84;54.38;99484.56;4971594;28;20142;-65
2022/12/05 05:44:21;;;;;;;210.38;117.03;;;;;;;22.92;56.82;99482.38;4966524;28;20051;-65
2022/12/05 05:47:10;;;;;;;210.77;119.68;;;;;;;22.99;57.52;99480.16;4976783;28;20133;-66
2022/12/05 05:49:59;;;;;;;211.15;117.28;;;;;;;23.25;52.91;99481.75;4986002;28;20136;-63
2022/12/05 05:52:43;;;;;;;198.82;113.13;;;;;;;23.37;53.99;99486.09;4978821;28;20050;-64
2022/12/05 05:55:38;;;;;;;192.65;113.75;;;;;;;23.53;55.49;99479.44;4969225;28;20050;-66
2022/12/05 05:58:14;;;;;;;213.90;121.53;;;;;;;23.39;51.48;99472.94;4987748;28;20053;-65
2022/12/05 06:01:12;;;;;;;211.80;117.90;;;;;;;23.41;55.20;99477.03;4988431;28;20078;-64
2022/12/05 06:04:01;;;;;;;189.82;108.10;;;;;;;23.34;55.80;99467.50;4982943;28;20657;-66
2022/12/05 06:06:43;;;;;;;181.95;105.47;;;;;;;23.59;56.51;99472.84;4969143;28;20053;-64
2022/12/05 06:09:32;;;;;;;182.02;101.43;;;;;;;23.84;53.31;99473.84;4959242;28;20078;-63
2022/12/05 06:12:14;;;;;;;166.95;96.55;;;;;;;23.51;50.28;99470.69;4964935;28;20062;-65
2022/12/05 06:15:03;;;;;;;144.25;83.40;;;;;;;23.64;51.66;99458.31;4954531;28;20051;-63
2022/12/05 06:17:45;;;;;;;148.00;82.80;;;;;;;23.80;51.35;99457.13;4966073;28;20106;-64
2022/12/05 06:20:34;;;;;;;141.95;82.60;;;;;;;23.94;53.61;99457.34;4964767;28;20066;-64
2022/12/05 06:23:25;;;;;;;151.85;83.72;;;;;;;24.04;49.17;99448.22;4952515;28;20051;-65
2022/12/05 06:26:07;;;;;;;159.55;93.35;;;;;;;24.02;50.75;99448.50;4949828;28;20046;-64
2022/12/05 06:29:02;;;;;;;154.90;89.88;;;;;;;24.07;55.37;99439.41;4967131;28;20047;-64
2022/12/05 06:31:41;;;;;;;164.43;96.30;;;;;;;23.95;55.37;99445.25;4967484;28;20055;-62
2022/12/05 06:34:36;;;;;;;175.70;101.03;;;;;;;23.90;55.06;99442.53;4969402;28;20070;-64
2022/12/05 06:37:25;;;;;;;196.68;111.22;;;;;;;24.07;51.97;99428.44;4970575;28;20609;-64
2022/12/05 06:40:07;;;;;;;193.00;108.80;;;;;;;24.16;51.78;99425.94;4975253;28;20498;-63
2022/12/05 06:42:56;;;;;;;253.43;136.43;;;;;;;24.08;52.79;99424.63;4967211;28;20062;-64
2022/12/05 06:45:38;;;;;;;295.17;154.23;;;;;;;24.06;54.53;99425.97;4985371;28;20550;-63
2022/12/05 06:48:33;;;;;;;310.73;166.05;;;;;;;23.99;54.31;99418.91;4969736;28;20081;-64
2022/12/05 06:51:12;;;;;;;272.00;144.43;;;;;;;23.91;54.91;99413.22;4986221;28;20097;-63
2022/12/05 06:54:06;;;;;;;222.95;126.43;;;;;;;24.12;54.26;99417.44;4982692;28;20431;-63
2022/12/05 06:56:42;;;;;;;191.85;112.63;;;;;;;24.16;52.77;99401.25;4967247;28;20109;-63
2022/12/05 06:59:31;;;;;;;192.40;114.07;;;;;;;24.01;54.25;99394.75;4968278;28;20150;-63
2022/12/05 07:02:16;;;;;;;190.68;109.95;;;;;;;24.13;52.54;99396.31;4971784;28;20492;-62
2022/12/05 07:05:05;;;;;;;182.82;106.05;;;;;;;23.96;51.49;99400.31;4967180;28;20142;-65
2022/12/05 07:07:47;;;;;;;173.98;99.72;;;;;;;24.11;51.69;99390.31;4966864;28;20059;-64
2022/12/05 07:10:42;;;;;;;166.05;93.95;;;;;;;23.92;50.87;99381.97;4979133;28;20126;-64
2022/12/05 07:13:18;;;;;;;157.00;92.43;;;;;;;24.06;50.39;99382.94;4947307;29;20110;-66
2022/12/05 07:16:07;;;;;;;162.90;95.78;;;;;;;24.12;51.17;99375.50;4930788;29;20138;-66
2022/12/05 07:18:56;;;;;;;161.10;96.10;;;;;;;24.21;50.67;99373.78;4955671;28;20054;-65
2022/12/05 07:21:53;;;;;;;183.52;102.68;;;;;;;24.26;49.69;99361.94;4972893;28;20046;-64
2022/12/05 07:24:43;;;;;;;168.93;95.65;;;;;;;24.39;50.79;99364.00;4980816;28;20050;-65
2022/12/05 07:27:33;;;;;;;178.90;99.03;;;;;;;24.20;49.16;99372.94;4947129;28;20162;-64
2022/12/05 07:30:21;;;;;;;164.02;99.28;;;;;;;24.31;50.12;99362.72;4965713;28;20054;-65
2022/12/05 07:33:03;;;;;;;155.57;90.28;;;;;;;24.51;48.49;99352.63;4967144;28;20062;-65
2022/12/05 07:35:52;;;;;;;139.38;82.22;;;;;;;24.55;46.02;99350.97;4985779;28;20060;-66
2022/12/05 07:38:42;;;;;;;137.05;80.57;;;;;;;24.56;47.29;99352.63;4978743;28;20051;-64
2022/12/05 07:41:28;;;;;;;131.73;76.63;;;;;;;24.34;45.93;99351.16;4966360;28;20475;-65
2022/12/05 07:44:21;;;;;;;117.47;69.28;;;;;;;24.65;44.71;99339.91;4956259;28;20058;-64
2022/12/05 07:47:03;;;;;;;115.97;66.07;;;;;;;24.57;46.79;99337.75;4987438;28;20623;-59
2022/12/05 07:49:52;;;;;;;112.30;64.05;;;;;;;24.53;46.03;99326.56;4961920;28;20059;-64
2022/12/05 07:52:35;;;;;;;112.28;62.83;;;;;;;24.36;45.88;99332.50;4973994;28;20652;-64
2022/12/05 07:55:24;;;;;;;104.93;60.13;;;;;;;24.33;43.68;99319.34;4974123;28;20495;-65
2022/12/05 07:58:13;;;;;;;104.65;60.00;;;;;;;24.53;45.06;99317.50;4969584;28;20066;-64
2022/12/05 08:00:55;;;;;;;110.95;61.83;;;;;;;24.60;44.79;99310.56;4970710;28;20063;-65
2022/12/05 08:03:51;;;;;;;110.25;64.65;;;;;;;24.65;45.56;99312.44;4969707;28;20379;-64
2022/12/05 08:06:29;;;;;;;120.85;72.10;;;;;;;24.26;46.24;99304.34;4989584;28;20057;-64
2022/12/05 08:09:18;;;;;;;133.60;75.65;;;;;;;24.34;47.12;99299.03;4970012;28;20054;-64
2022/12/05 08:12:07;;;;;;;145.48;83.45;;;;;;;24.08;46.67;99292.19;4968198;28;20142;-64
2022/12/05 08:15:02;;;;;;;152.15;89.05;;;;;;;24.42;48.46;99287.44;4980078;28;20154;-64
2022/12/05 08:17:38;;;;;;;157.15;86.25;;;;;;;24.63;46.96;99281.75;4960279;28;20047;-65
2022/12/05 08:20:32;;;;;;;165.27;87.32;;;;;;;24.55;47.78;99279.63;4969205;28;20510;-63
2022/12/05 08:23:14;;;;;;;162.00;90.45;;;;;;;24.43;48.20;99275.31;4978284;28;20059;-63
2022/12/05 08:26:08;;;;;;;162.98;90.55;;;;;;;24.55;48.14;99274.13;4986579;28;20060;-64
2022/12/05 08:28:53;;;;;;;162.05;88.28;;;;;;;24.42;47.27;99268.22;4971981;28;20086;-65
2022/12/05 08:31:47;;;;;;;159.75;86.97;;;;;;;24.48;46.52;99273.66;4969177;28;20075;-64
2022/12/05 08:34:36;;;;;;;145.15;80.28;;;;;;;24.58;45.44;99263.38;4969164;28;20058;-63
2022/12/05 08:37:18;;;;;;;144.85;77.93;;;;;;;24.58;45.13;99263.38;4969904;28;20050;-63
2022/12/05 08:40:08;;;;;;;135.10;73.57;;;;;;;24.72;46.12;99268.16;4968616;28;20487;-64
2022/12/05 08:42:57;;;;;;;131.95;70.88;;;;;;;24.75;45.98;99257.41;4973517;28;20745;-63
2022/12/05 08:45:39;;;;;;;127.15;70.18;;;;;;;24.67;45.48;99255.34;4984344;28;20069;-65
2022/12/05 08:48:29;;;;;;;125.28;71.57;;;;;;;24.50;45.68;99260.47;4970163;28;20129;-65
2022/12/05 08:51:12;;;;;;;121.47;69.03;;;;;;;24.65;45.64;99252.06;4988367;28;20054;-64
2022/12/05 08:54:01;;;;;;;131.25;73.13;;;;;;;24.62;46.36;99249.91;4987255;28;20047;-63
2022/12/05 08:56:43;;;;;;;132.70;73.22;;;;;;;24.70;45.66;99246.50;4982643;28;20447;-64
2022/12/05 08:59:26;;;;;;;135.32;72.22;;;;;;;24.60;46.47;99252.94;4986551;28;20149;-64
2022/12/05 09:02:16;;;;;;;142.05;77.35;;;;;;;24.39;46.12;99246.84;4968499;28;20524;-63
2022/12/05 09:04:58;;;;;;;152.93;77.77;;;;;;;24.47;46.35;99245.38;4969091;28;20047;-64
2022/12/05 09:08:07;;;;;;;140.77;77.00;;;;;;;24.18;46.39;99245.44;4978948;28;20299;-63
2022/12/05 09:10:56;;;;;;;145.90;77.57;;;;;;;24.37;46.88;99240.84;4984725;28;20054;-64
2022/12/05 09:13:38;;;;;;;145.48;77.70;;;;;;;24.36;46.64;99239.22;4987534;28;20144;-65
2022/12/05 09:16:30;;;;;;;148.25;76.97;;;;;;;24.33;47.61;99238.97;4987213;28;20050;-64
2022/12/05 09:19:23;;;;;;;134.18;71.65;;;;;;;24.42;45.95;99235.31;4967676;28;20062;-63
2022/12/05 09:22:18;;;;;;;124.97;66.35;;;;;;;24.43;45.71;99236.91;4979395;28;20058;-63
2022/12/05 09:25:08;;;;;;;136.95;73.32;;;;;;;24.33;45.36;99233.50;4970358;28;20758;-64
2022/12/05 09:27:57;;;;;;;135.80;69.93;;;;;;;24.42;46.89;99238.03;4974549;28;20550;-64
2022/12/05 09:30:39;;;;;;;123.30;70.38;;;;;;;24.44;45.68;99224.03;4970343;28;20048;-65
2022/12/05 09:33:28;;;;;;;135.35;69.43;;;;;;;24.38;45.03;99228.78;4969834;28;20074;-64
2022/12/05 09:36:21;;;;;;;129.57;67.65;;;;;;;24.37;45.50;99218.88;4987512;28;20051;-65
2022/12/05 09:39:11;;;;;;;114.72;63.65;;;;;;;24.34;44.71;99227.72;4983712;28;20062;-64
2022/12/05 09:42:05;;;;;;;120.05;64.40;;;;;;;24.33;45.60;99217.03;4982679;28;20548;-64
2022/12/05 09:45:02;;;;;;;138.88;70.07;;;;;;;24.24;45.27;99216.84;4986424;28;20149;-65
2022/12/05 09:48:14;;;;;;;133.98;67.00;;;;;;;24.18;46.66;99220.78;4986726;28;20141;-64
2022/12/05 09:51:09;;;;;;;134.48;70.43;;;;;;;24.29;46.63;99218.75;4981899;28;20152;-63
2022/12/05 09:53:58;;;;;;;127.07;71.72;;;;;;;24.08;47.98;99209.94;4987060;28;20056;-64
2022/12/05 09:56:40;;;;;;;124.82;68.43;;;;;;;24.12;48.06;99216.47;4986870;28;20742;-64
2022/12/05 09:59:35;;;;;;;139.02;74.07;;;;;;;24.01;48.61;99219.28;4987063;28;20061;-63
2022/12/05 10:02:17;;;;;;;137.63;72.93;;;;;;;23.90;48.54;99220.50;4975324;28;20085;-63
2022/12/05 10:05:14;;;;;;;126.97;73.18;;;;;;;23.92;48.42;99225.69;4972290;28;20086;-63
2022/12/05 10:08:01;;;;;;;125.97;72.03;;;;;;;23.87;48.68;99223.84;4959848;28;20059;-64
2022/12/05 10:11:07;;;;;;;142.85;75.28;;;;;;;23.69;49.61;99222.59;4956574;28;20490;-63
2022/12/05 10:14:05;;;;;;;136.52;74.63;;;;;;;23.75;50.30;99224.19;4974048;28;20050;-63
2022/12/05 10:17:06;;;;;;;154.48;74.63;;;;;;;23.78;49.80;99228.28;4982977;28;20042;-65
2022/12/05 10:19:45;;;;;;;143.65;79.93;;;;;;;23.67;50.22;99232.22;4985890;28;20065;-63
2022/12/05 10:22:43;;;;;;;144.15;78.65;;;;;;;23.72;49.99;99229.44;4980427;28;20060;-64
2022/12/05 10:25:21;;;;;;;145.98;76.28;;;;;;;23.61;50.21;99232.25;4985870;28;20058;-64
2022/12/05 10:28:39;;;;;;;140.82;78.05;;;;;;;23.62;49.83;99224.88;4966283;28;20728;-63
2022/12/05 10:31:19;;;;;;;138.57;74.20;;;;;;;23.33;51.25;99213.88;4965653;28;20401;-64
2022/12/05 10:34:44;;;;;;;157.18;80.60;;;;;;;23.53;50.57;99215.63;4973420;28;20081;-65
2022/12/05 10:37:23;;;;;;;142.48;78.88;;;;;;;23.33;51.52;99216.59;4979378;28;20075;-63
2022/12/05 10:40:12;;;;;;;147.02;78.90;;;;;;;23.45;51.46;99217.06;4966196;28;20089;-63
2022/12/05 10:43:01;;;;;;;149.93;78.82;;;;;;;23.21;52.54;99209.56;4969333;28;20701;-63
2022/12/05 10:45:47;;;;;;;143.88;79.80;;;;;;;23.11;53.38;99222.53;4984544;28;20748;-64
2022/12/05 10:48:39;;;;;;;145.95;78.97;;;;;;;22.97;53.96;99208.63;4985505;28;20053;-63
2022/12/05 10:51:28;;;;;;;151.43;83.20;;;;;;;22.92;54.09;99216.88;4968137;28;20795;-64
2022/12/05 10:54:29;;;;;;;150.95;80.80;;;;;;;22.92;54.05;99209.47;4972389;28;20146;-64
2022/12/05 10:57:24;;;;;;;145.82;82.57;;;;;;;22.86;54.57;99208.69;4985592;28;20381;-63
2022/12/05 11:00:17;;;;;;;157.50;82.00;;;;;;;22.74;54.99;99210.13;4974625;28;20058;-63
2022/12/05 11:03:44;;;;;;;159.02;82.70;;;;;;;22.64;55.42;99214.56;4973767;28;20050;-64
2022/12/05 11:06:29;;;;;;;150.35;83.00;;;;;;;22.63;55.53;99210.19;4973996;28;20051;-65
2022/12/05 11:09:27;;;;;;;154.30;82.78;;;;;;;22.56;56.30;99214.31;4975315;28;20074;-63
2022/12/05 11:12:21;;;;;;;178.63;90.75;;;;;;;22.57;56.58;99215.97;4974232;28;20078;-65
2022/12/05 11:15:21;;;;;;;159.02;85.47;;;;;;;22.40;58.04;99211.66;4974508;28;20528;-65
2022/12/05 11:18:24;;;;;;;170.35;87.72;;;;;;;22.29;58.27;99210.06;4978571;28;20151;-64
2022/12/05 11:21:20;;;;;;;163.38;87.05;;;;;;;22.21;58.84;99208.69;4951098;28;20079;-64
2022/12/05 11:24:28;;;;;;;172.35;89.80;;;;;;;22.25;59.03;99217.19;4984131;28;20145;-66
2022/12/05 11:27:22;;;;;;;177.75;90.95;;;;;;;22.13;59.70;99211.19;4950337;28;20162;-64
2022/12/05 11:30:11;;;;;;;166.98;91.47;;;;;;;21.99;59.50;99200.84;4972441;28;20058;-64
2022/12/05 11:32:53;;;;;;;179.48;91.22;;;;;;;21.91;60.90;99206.84;4954010;28;20478;-63
2022/12/05 11:35:42;;;;;;;168.35;93.55;;;;;;;21.81;61.73;99201.41;4969918;28;20150;-64
2022/12/05 11:38:33;;;;;;;181.80;94.00;;;;;;;21.74;61.83;99203.59;4977565;28;20042;-65
2022/12/05 11:41:41;;;;;;;178.27;93.75;;;;;;;21.55;63.57;99206.91;4988887;28;20370;-63
2022/12/05 11:44:40;;;;;;;188.02;96.60;;;;;;;21.43;63.49;99204.41;4974288;28;20065;-65
2022/12/05 11:47:44;;;;;;;175.20;97.40;;;;;;;21.45;63.51;99205.00;4975770;28;20070;-66
2022/12/05 11:50:47;;;;;;;194.10;98.15;;;;;;;21.39;63.67;99203.31;4977559;28;20150;-66
2022/12/05 11:54:11;;;;;;;184.02;100.10;;;;;;;21.19;64.56;99204.16;4977408;28;20042;-64
2022/12/05 11:57:16;;;;;;;198.55;100.95;;;;;;;21.09;64.78;99202.25;4969591;28;20054;-64
2022/12/05 12:00:32;;;;;;;194.80;98.25;;;;;;;20.93;65.55;99193.19;4981587;28;20062;-64
2022/12/05 12:03:22;;;;;;;204.80;102.35;;;;;;;20.86;66.13;99195.34;4952681;28;20051;-64
2022/12/05 12:06:48;;;;;;;199.57;105.82;;;;;;;20.77;66.49;99194.28;4951275;28;20079;-64
2022/12/05 12:09:36;;;;;;;206.20;106.95;;;;;;;20.61;67.15;99192.56;4972302;28;20077;-64
2022/12/05 12:12:31;;;;;;;202.90;106.43;;;;;;;20.58;66.98;99195.78;4969294;28;20062;-64
2022/12/05 12:15:37;;;;;;;202.73;105.28;;;;;;;20.44;67.61;99195.47;4961026;28;20057;-64
2022/12/05 12:18:45;;;;;;;202.57;102.35;;;;;;;20.34;67.71;99201.72;4988261;28;20054;-64
2022/12/05 12:21:30;;;;;;;197.00;102.47;;;;;;;20.20;68.24;99198.66;4958198;28;20054;-64
2022/12/05 12:24:28;;;;;;;206.45;106.68;;;;;;;20.14;68.67;99207.91;4988074;28;20398;-64
2022/12/05 12:27:44;;;;;;;200.10;104.53;;;;;;;20.14;68.66;99208.72;4983745;28;20760;-63
2022/12/05 12:31:25;;;;;;;201.68;105.30;;;;;;;20.09;69.06;99216.03;4988568;28;20169;-64
2022/12/05 12:34:29;;;;;;;204.50;103.70;;;;;;;20.00;69.02;99215.72;4987179;28;20508;-63
2022/12/05 12:37:52;;;;;;;202.38;101.65;;;;;;;19.93;69.48;99215.97;4981324;28;20070;-64
2022/12/05 12:40:46;;;;;;;211.77;105.75;;;;;;;19.81;69.78;99212.59;4968266;28;20066;-64
2022/12/05 12:44:01;;;;;;;212.80;103.75;;;;;;;19.70;70.15;99214.41;4970480;28;20153;-65
2022/12/05 12:47:10;;;;;;;217.32;104.65;;;;;;;19.67;70.00;99209.47;4968970;28;20051;-65
2022/12/05 12:50:21;;;;;;;204.15;106.53;;;;;;;19.61;70.38;99207.81;4971249;28;20482;-64
2022/12/05 12:53:13;;;;;;;219.75;111.25;;;;;;;19.51;70.52;99210.47;4968553;28;20066;-64
2022/12/05 12:56:12;;;;;;;213.98;109.40;;;;;;;19.52;70.75;99214.81;4971603;28;20360;-64
2022/12/05 12:59:20;;;;;;;214.10;110.90;;;;;;;19.54;70.08;99215.38;4968596;28;20466;-64
2022/12/05 13:02:11;;;;;;;206.13;107.13;;;;;;;19.48;70.77;99224.59;4968844;28;20054;-64
2022/12/05 13:05:26;;;;;;;211.07;105.80;;;;;;;19.42;70.85;99226.44;4975015;28;20054;-64